Time;durP1;ratioP1;P1;durP2;ratioP2;P2;SDS_P1;SDS_P2;PMS_P1;PMS_P2;Temp;Humidity;BMP_temperature;BMP_pressure;BME280_temperature;BME280_humidity;BME280_pressure;Samples;Min_cycle;Max_cycle;Signal;HPM_P1;HPM_P2
2022/01/16 00:04:45;;;;;;;;;;;;;;;8.83;34.66;100153.56;4482347;32;35178;-88
2022/01/16 00:07:13;;;;;;;;;;;;;;;8.57;35.33;100160.38;4481334;32;35285;-88
2022/01/16 00:09:40;;;;;;;;;;;;;;;8.46;35.23;100145.34;4481026;32;33428;-89
2022/01/16 00:12:07;;;;;;;;;;;;;;;8.72;35.05;100135.97;4483092;32;35617;-86
2022/01/16 00:14:35;;;;;;;;;;;;;;;8.75;34.81;100128.31;4482255;32;33979;-86
2022/01/16 00:17:02;;;;;;;;;;;;;;;8.82;34.56;100128.50;4483552;32;35315;-84
2022/01/16 00:19:29;;;;;;;;;;;;;;;8.85;34.40;100115.69;4482144;32;33302;-87
2022/01/16 00:21:57;;;;;;;;;;;;;;;8.71;34.80;100143.66;4482853;32;33655;-87
2022/01/16 00:24:25;;;;;;;;;;;;;;;8.62;35.02;100158.84;4482390;32;34557;-86
2022/01/16 00:26:52;;;;;;;;;;;;;;;8.62;35.18;100148.50;4479956;32;35025;-85
2022/01/16 00:29:22;;;;;;;;;;;;;;;8.84;34.69;100173.44;4479286;32;34504;-88
2022/01/16 00:31:49;;;;;;;;;;;;;;;8.63;34.89;100165.75;4482947;31;34192;-88
2022/01/16 00:34:17;;;;;;;;;;;;;;;8.44;35.14;100128.03;4482343;32;34269;-87
2022/01/16 00:36:44;;;;;;;;;;;;;;;8.69;34.78;100141.03;4481939;32;34257;-87
2022/01/16 00:39:11;;;;;;;;;;;;;;;8.57;34.85;100150.94;4482029;32;32550;-86
2022/01/16 00:41:38;;;;;;;;;;;;;;;8.59;35.05;100151.84;4482350;32;33968;-86
2022/01/16 00:44:06;;;;;;;;;;;;;;;8.77;34.44;100141.28;4481783;32;34140;-85
2022/01/16 00:46:33;;;;;;;;;;;;;;;8.63;34.87;100142.50;4481645;32;34380;-86
2022/01/16 00:49:01;;;;;;;;;;;;;;;8.83;34.07;100107.91;4480581;32;33543;-87
2022/01/16 00:51:28;;;;;;;;;;;;;;;8.79;34.25;100124.16;4482194;32;34703;-88
2022/01/16 00:53:55;;;;;;;;;;;;;;;8.40;34.76;100121.84;4482725;32;34127;-89
2022/01/16 00:56:23;;;;;;;;;;;;;;;8.10;35.41;100126.72;4480981;32;35401;-88
2022/01/16 00:58:50;;;;;;;;;;;;;;;8.28;35.25;100142.06;4467120;32;33157;-87
2022/01/16 01:01:18;;;;;;;;;;;;;;;8.41;35.15;100122.72;4481447;32;34448;-87
2022/01/16 01:03:45;;;;;;;;;;;;;;;8.44;35.13;100126.31;4482153;32;34188;-88
2022/01/16 01:06:14;;;;;;;;;;;;;;;8.47;34.81;100130.72;4482123;32;34159;-87
2022/01/16 01:08:42;;;;;;;;;;;;;;;8.14;35.13;100120.84;4482323;32;34448;-88
2022/01/16 01:11:14;;;;;;;;;;;;;;;8.15;35.53;100130.38;4481718;32;35688;-89
2022/01/16 01:13:57;;;;;;;;;;;;;;;8.20;35.49;100141.75;4482289;32;35361;-86
2022/01/16 01:16:25;;;;;;;;;;;;;;;8.44;35.19;100161.63;4482027;32;34742;-86
2022/01/16 01:18:52;;;;;;;;;;;;;;;8.68;34.73;100139.28;4481367;32;34589;-89
2022/01/16 01:21:28;;;;;;;;;;;;;;;8.53;34.86;100048.25;4482209;32;34244;-89
2022/01/16 01:23:57;;;;;;;;;;;;;;;8.52;34.71;100054.22;4481735;32;34802;-85
2022/01/16 01:26:29;;;;;;;;;;;;;;;8.63;34.79;100078.75;4479926;32;34569;-88
2022/01/16 01:28:57;;;;;;;;;;;;;;;8.85;34.34;100058.81;4480501;32;33555;-87
2022/01/16 01:31:29;;;;;;;;;;;;;;;8.68;34.35;100061.72;4479945;32;33865;-87
2022/01/16 01:33:57;;;;;;;;;;;;;;;8.64;34.65;100101.22;4481667;32;35107;-86
2022/01/16 01:36:24;;;;;;;;;;;;;;;8.60;34.93;100093.28;4481214;32;34558;-88
2022/01/16 01:38:51;;;;;;;;;;;;;;;8.72;34.32;100125.63;4481349;32;33209;-89
2022/01/16 01:41:20;;;;;;;;;;;;;;;8.77;34.25;100133.53;4480550;32;34852;-87
2022/01/16 01:52:05;;;;;;;;;;;;;;;7.78;36.27;100139.28;4466060;32;34714;-85
2022/01/16 01:54:32;;;;;;;;;;;;;;;8.04;35.79;100100.69;4479911;32;34087;-88
2022/01/16 01:57:00;;;;;;;;;;;;;;;8.22;35.48;100115.97;4481589;32;34385;-87
2022/01/16 01:59:28;;;;;;;;;;;;;;;8.05;35.98;100120.53;4481777;32;34388;-84
2022/01/16 02:01:55;;;;;;;;;;;;;;;8.03;35.98;100117.91;4482547;32;35207;-87
2022/01/16 02:04:23;;;;;;;;;;;;;;;8.24;35.79;100122.09;4484197;32;34499;-85
2022/01/16 02:06:50;;;;;;;;;;;;;;;8.44;35.51;100122.84;4482727;32;34356;-85
2022/01/16 02:09:17;;;;;;;;;;;;;;;8.52;35.28;100106.81;4483477;32;33702;-88
2022/01/16 02:11:45;;;;;;;;;;;;;;;8.49;35.23;100117.03;4482157;32;34951;-85
2022/01/16 02:14:27;;;;;;;;;;;;;;;8.66;34.89;100116.75;4482315;32;35176;-87
2022/01/16 02:34:31;;;;;;;;;;;;;;;8.19;35.45;100129.69;4481992;32;34177;-84
2022/01/16 02:36:27;;;;;;;;;;;;;;;8.10;35.45;100142.22;4482001;32;32851;-88
2022/01/16 02:39:10;;;;;;;;;;;;;;;8.25;35.29;100140.22;4483343;32;35331;-84
2022/01/16 02:41:37;;;;;;;;;;;;;;;8.33;35.11;100142.22;4482935;32;33677;-85
2022/01/16 02:44:16;;;;;;;;;;;;;;;8.44;34.89;100149.56;4483734;32;34928;-85
2022/01/16 02:46:44;;;;;;;;;;;;;;;8.34;34.97;100144.00;4483564;32;34409;-84
2022/01/16 02:49:22;;;;;;;;;;;;;;;8.33;34.89;100142.22;4483087;32;35285;-86
2022/01/16 02:51:50;;;;;;;;;;;;;;;8.25;35.10;100154.84;4483507;32;33547;-85
2022/01/16 02:54:17;;;;;;;;;;;;;;;8.22;34.86;100132.37;4483031;32;34136;-87
2022/01/16 02:56:45;;;;;;;;;;;;;;;8.23;34.78;100134.12;4483306;32;33711;-84
2022/01/16 02:59:12;;;;;;;;;;;;;;;8.28;34.85;100134.31;4481987;32;34045;-87
2022/01/16 03:01:40;;;;;;;;;;;;;;;8.10;35.14;100126.72;4482562;32;33815;-88
2022/01/16 03:04:07;;;;;;;;;;;;;;;8.17;35.21;100120.97;4482858;32;33989;-88
2022/01/16 03:06:35;;;;;;;;;;;;;;;8.20;34.86;100123.69;4482739;31;34197;-87
2022/01/16 03:09:05;;;;;;;;;;;;;;;8.34;34.52;100128.50;4483283;32;34369;-88
2022/01/16 03:11:48;;;;;;;;;;;;;;;7.95;35.17;100132.19;4482837;32;33288;-86
2022/01/16 03:14:16;;;;;;;;;;;;;;;7.82;35.47;100126.50;4482737;32;34652;-88
2022/01/16 03:16:47;;;;;;;;;;;;;;;8.10;34.77;100126.72;4481206;32;34181;-84
2022/01/16 03:22:04;;;;;;;;;;;;;;;8.09;34.43;100118.94;4482926;32;33724;-87
2022/01/16 03:24:36;;;;;;;;;;;;;;;8.12;34.51;100114.78;4482660;32;34455;-83
2022/01/16 03:27:05;;;;;;;;;;;;;;;7.99;34.94;100108.28;4481914;32;34950;-86
2022/01/16 03:29:32;;;;;;;;;;;;;;;7.80;35.24;100106.69;4482173;32;34159;-88
2022/01/16 03:32:00;;;;;;;;;;;;;;;7.82;35.22;100111.03;4483035;32;32147;-88
2022/01/16 03:34:27;;;;;;;;;;;;;;;7.72;35.47;100110.63;4483167;32;34853;-87
2022/01/16 03:36:56;;;;;;;;;;;;;;;7.69;35.42;100102.81;4481908;32;34816;-85
2022/01/16 03:39:23;;;;;;;;;;;;;;;7.78;35.46;100110.03;4483014;32;34497;-86
2022/01/16 03:41:50;;;;;;;;;;;;;;;7.95;35.03;100113.25;4482158;32;33874;-85
2022/01/16 03:44:18;;;;;;;;;;;;;;;8.08;34.53;100099.97;4482705;32;33577;-88
2022/01/16 03:46:45;;;;;;;;;;;;;;;7.91;34.76;100104.50;4481718;32;35256;-86
2022/01/16 03:49:14;;;;;;;;;;;;;;;7.97;34.41;100101.28;4482893;32;34797;-87
2022/01/16 03:51:43;;;;;;;;;;;;;;;7.98;34.28;100097.87;4482397;32;33948;-86
2022/01/16 03:54:11;;;;;;;;;;;;;;;7.99;33.98;100100.53;4481467;32;34866;-89
2022/01/16 03:56:39;;;;;;;;;;;;;;;7.76;34.28;100098.75;4481247;32;34319;-89
2022/01/16 03:59:06;;;;;;;;;;;;;;;7.46;35.04;100095.81;4482493;32;34436;-89
2022/01/16 04:01:33;;;;;;;;;;;;;;;7.45;35.13;100097.53;4480738;32;33281;-87
2022/01/16 04:04:01;;;;;;;;;;;;;;;7.61;34.80;100088.69;4482891;32;34158;-86
2022/01/16 04:06:28;;;;;;;;;;;;;;;7.59;34.69;100090.34;4482925;31;33772;-87
2022/01/16 04:08:56;;;;;;;;;;;;;;;7.71;34.58;100089.94;4482786;32;33701;-87
2022/01/16 04:11:24;;;;;;;;;;;;;;;7.74;34.33;100085.78;4480741;32;33704;-86
2022/01/16 04:13:53;;;;;;;;;;;;;;;7.80;34.05;100086.03;4467766;32;34384;-84
2022/01/16 04:16:21;;;;;;;;;;;;;;;7.45;34.55;100092.38;4478558;32;35331;-84
2022/01/16 04:18:51;;;;;;;;;;;;;;;7.32;35.01;100093.59;4481510;32;34268;-85
2022/01/16 04:21:18;;;;;;;;;;;;;;;7.48;35.11;100091.63;4481912;32;33336;-88
2022/01/16 04:23:46;;;;;;;;;;;;;;;7.28;35.43;100089.13;4482872;32;34086;-88
2022/01/16 04:26:14;;;;;;;;;;;;;;;7.23;35.17;100094.91;4481161;32;34053;-84
2022/01/16 04:28:41;;;;;;;;;;;;;;;7.30;34.87;100092.63;4483062;32;34983;-87
2022/01/16 04:31:08;;;;;;;;;;;;;;;7.39;34.79;100097.31;4482467;32;34484;-86
2022/01/16 04:33:36;;;;;;;;;;;;;;;7.30;34.90;100102.94;4481701;32;34839;-85
2022/01/16 04:36:03;;;;;;;;;;;;;;;7.40;34.93;100099.06;4482704;32;34127;-84
2022/01/16 04:38:30;;;;;;;;;;;;;;;7.35;35.05;100095.44;4482865;32;34274;-85
2022/01/16 04:43:53;;;;;;;;;;;;;;;7.09;35.39;100096.94;4482341;32;34280;-87
2022/01/16 04:46:20;;;;;;;;;;;;;;;7.18;35.31;100105.03;4482330;32;35419;-88
2022/01/16 04:48:48;;;;;;;;;;;;;;;6.78;35.53;100095.66;4481941;32;34233;-85
2022/01/16 04:51:15;;;;;;;;;;;;;;;7.18;35.08;100097.31;4481570;32;33743;-86
2022/01/16 04:53:42;;;;;;;;;;;;;;;7.51;34.67;100089.16;4482347;32;33813;-88
2022/01/16 04:56:12;;;;;;;;;;;;;;;7.54;34.29;100089.31;4481223;32;34165;-86
2022/01/16 04:58:40;;;;;;;;;;;;;;;7.25;34.95;100078.69;4481042;32;34541;-86
2022/01/16 05:01:07;;;;;;;;;;;;;;;6.98;35.13;100091.31;4480994;32;33330;-87
2022/01/16 05:03:35;;;;;;;;;;;;;;;7.04;35.13;100086.41;4481040;32;33814;-87
2022/01/16 05:06:02;;;;;;;;;;;;;;;7.13;34.64;100091.09;4477963;32;86773;-86
2022/01/16 05:08:30;;;;;;;;;;;;;;;6.88;35.59;100081.44;4482153;32;34496;-88
2022/01/16 05:10:57;;;;;;;;;;;;;;;6.96;35.54;100076.59;4481571;32;33430;-84
2022/01/16 05:13:30;;;;;;;;;;;;;;;6.90;35.21;100078.94;4481657;32;34244;-87
2022/01/16 05:18:57;;;;;;;;;;;;;;;6.59;36.10;100085.34;4450410;32;33748;-87
2022/01/16 05:21:25;;;;;;;;;;;;;;;6.88;35.69;100085.72;4480863;32;33993;-87
2022/01/16 05:23:52;;;;;;;;;;;;;;;6.95;35.46;100077.44;4481278;32;36850;-89
2022/01/16 05:26:25;;;;;;;;;;;;;;;6.99;35.09;100079.31;4481869;32;34061;-89
2022/01/16 05:28:53;;;;;;;;;;;;;;;7.25;34.69;100063.22;4481979;32;33997;-88
2022/01/16 05:31:21;;;;;;;;;;;;;;;7.01;35.07;100083.72;4483558;31;33039;-88
2022/01/16 05:33:48;;;;;;;;;;;;;;;6.63;35.86;100089.84;4483390;32;34126;-86
2022/01/16 05:36:16;;;;;;;;;;;;;;;6.85;35.57;100083.00;4483963;32;34478;-86
2022/01/16 05:38:43;;;;;;;;;;;;;;;6.77;35.18;100082.69;4482699;32;34468;-87
2022/01/16 05:41:10;;;;;;;;;;;;;;;6.89;35.02;100090.03;4481513;32;32825;-86
2022/01/16 05:43:38;;;;;;;;;;;;;;;6.94;34.92;100086.88;4484047;32;33791;-85
2022/01/16 05:46:05;;;;;;;;;;;;;;;6.86;34.85;100088.25;4484028;32;34113;-85
2022/01/16 05:48:32;;;;;;;;;;;;;;;6.89;34.98;100102.94;4483384;32;34128;-86
2022/01/16 05:50:59;;;;;;;;;;;;;;;6.51;35.71;100104.75;4482450;32;34244;-87
2022/01/16 05:53:27;;;;;;;;;;;;;;;6.53;35.75;100108.28;4483605;32;33883;-87
2022/01/16 05:55:54;;;;;;;;;;;;;;;6.60;35.54;100102.59;4484076;32;34036;-86
2022/01/16 05:58:21;;;;;;;;;;;;;;;6.42;35.74;100106.94;4483947;32;35091;-87
2022/01/16 06:00:48;;;;;;;;;;;;;;;6.39;35.66;100114.50;4482473;32;33691;-86
2022/01/16 06:03:16;;;;;;;;;;;;;;;6.45;35.62;100119.94;4483365;32;34092;-87
2022/01/16 06:05:43;;;;;;;;;;;;;;;6.49;35.26;100120.12;4484106;32;34007;-87
2022/01/16 06:08:12;;;;;;;;;;;;;;;6.39;35.47;100109.34;4483263;32;34002;-88
2022/01/16 06:10:40;;;;;;;;;;;;;;;6.36;35.68;100109.22;4482647;32;34423;-88
2022/01/16 06:13:07;;;;;;;;;;;;;;;6.45;35.29;100119.94;4481435;32;34188;-88
2022/01/16 06:15:34;;;;;;;;;;;;;;;6.33;35.64;100117.72;4483708;32;35356;-87
2022/01/16 06:18:02;;;;;;;;;;;;;;;6.27;35.72;100118.28;4468294;32;34855;-88
2022/01/16 06:20:29;;;;;;;;;;;;;;;6.03;36.27;100119.78;4475382;32;33706;-86
2022/01/16 06:22:57;;;;;;;;;;;;;;;6.47;35.26;100116.59;4482765;32;33895;-88
2022/01/16 06:25:24;;;;;;;;;;;;;;;6.20;35.73;100123.97;4477048;32;34078;-87
2022/01/16 06:27:51;;;;;;;;;;;;;;;6.26;35.59;100124.28;4482619;32;34699;-87
2022/01/16 06:30:19;;;;;;;;;;;;;;;5.93;36.53;100122.72;4483547;32;34427;-88
2022/01/16 06:32:46;;;;;;;;;;;;;;;5.97;36.42;100132.34;4481329;31;34175;-86
2022/01/16 06:35:16;;;;;;;;;;;;;;;6.19;36.24;100122.22;4483788;32;35406;-87
2022/01/16 06:37:43;;;;;;;;;;;;;;;6.30;35.68;100123.59;4483659;32;33944;-86
2022/01/16 06:40:12;;;;;;;;;;;;;;;6.39;35.47;100129.97;4483885;32;33354;-86
2022/01/16 06:42:39;;;;;;;;;;;;;;;6.32;35.70;100127.09;4481327;32;33613;-89
2022/01/16 06:45:07;;;;;;;;;;;;;;;6.24;36.00;100132.72;4482243;32;34526;-89
2022/01/16 06:47:35;;;;;;;;;;;;;;;6.38;35.82;100133.34;4483085;32;34510;-89
2022/01/16 06:50:02;;;;;;;;;;;;;;;6.61;35.53;100127.53;4482419;32;33298;-87
2022/01/16 06:52:30;;;;;;;;;;;;;;;6.65;35.07;100120.81;4482712;32;33785;-88
2022/01/16 06:54:57;;;;;;;;;;;;;;;6.24;35.50;100125.88;4483689;32;34965;-85
2022/01/16 06:57:24;;;;;;;;;;;;;;;6.56;35.22;100118.72;4482884;32;34571;-87
2022/01/16 06:59:51;;;;;;;;;;;;;;;6.57;35.33;100121.34;4483384;32;34449;-89
2022/01/16 07:02:19;;;;;;;;;;;;;;;6.47;35.36;100124.31;4482776;32;34256;-88
2022/01/16 07:04:46;;;;;;;;;;;;;;;6.41;35.21;100118.94;4482902;32;35321;-89
2022/01/16 07:07:14;;;;;;;;;;;;;;;6.42;35.12;100117.22;4483145;31;34096;-88
2022/01/16 07:09:45;;;;;;;;;;;;;;;6.49;35.17;100115.00;4482871;32;34326;-88
2022/01/16 07:12:12;;;;;;;;;;;;;;;6.75;34.58;100118.72;4483263;32;34895;-88
2022/01/16 07:14:39;;;;;;;;;;;;;;;6.78;34.42;100121.41;4483107;32;34040;-89
2022/01/16 07:17:06;;;;;;;;;;;;;;;6.70;34.57;100122.75;4483195;32;34674;-86
2022/01/16 07:19:33;;;;;;;;;;;;;;;6.60;34.80;100128.34;4482639;32;33605;-88
2022/01/16 07:22:01;;;;;;;;;;;;;;;6.82;34.71;100133.62;4482651;32;35056;-87
2022/01/16 07:24:28;;;;;;;;;;;;;;;6.78;34.70;100136.88;4483529;32;35350;-90
2022/01/16 07:26:55;;;;;;;;;;;;;;;6.87;34.64;100145.81;4483523;32;35314;-87
2022/01/16 07:29:22;;;;;;;;;;;;;;;6.93;34.59;100151.22;4483096;32;33139;-88
2022/01/16 07:31:50;;;;;;;;;;;;;;;6.82;34.84;100145.63;4482573;32;35180;-87
2022/01/16 07:34:17;;;;;;;;;;;;;;;6.79;34.94;100141.22;4483495;32;35324;-89
2022/01/16 07:36:44;;;;;;;;;;;;;;;6.75;34.98;100135.87;4483114;32;34197;-88
2022/01/16 07:39:12;;;;;;;;;;;;;;;6.95;34.70;100132.44;4483466;32;33338;-86
2022/01/16 07:41:39;;;;;;;;;;;;;;;7.17;34.28;100129.06;4482524;32;33927;-87
2022/01/16 07:44:06;;;;;;;;;;;;;;;7.03;34.51;100143.06;4483189;32;34060;-86
2022/01/16 07:46:33;;;;;;;;;;;;;;;7.01;34.74;100144.72;4483165;32;34921;-84
2022/01/16 07:49:01;;;;;;;;;;;;;;;6.78;35.19;100138.56;4481779;32;33685;-88
2022/01/16 07:51:29;;;;;;;;;;;;;;;6.89;34.73;100142.47;4482517;32;34382;-85
2022/01/16 07:53:57;;;;;;;;;;;;;;;6.80;35.14;100148.13;4481565;32;35209;-85
2022/01/16 07:56:24;;;;;;;;;;;;;;;6.47;35.88;100150.09;4482933;32;34523;-86
2022/01/16 07:58:51;;;;;;;;;;;;;;;6.61;35.83;100142.97;4482711;32;33773;-84
2022/01/16 08:01:19;;;;;;;;;;;;;;;6.32;36.39;100134.81;4482454;32;34892;-88
2022/01/16 08:03:46;;;;;;;;;;;;;;;6.63;36.02;100132.72;4482735;32;34116;-85
2022/01/16 08:06:17;;;;;;;;;;;;;;;6.71;35.92;100142.59;4483202;32;34475;-86
2022/01/16 08:08:44;;;;;;;;;;;;;;;6.75;35.88;100130.72;4483056;32;34620;-85
2022/01/16 08:11:11;;;;;;;;;;;;;;;7.09;35.32;100133.03;4482445;32;34616;-88
2022/01/16 08:13:39;;;;;;;;;;;;;;;7.06;35.52;100117.44;4482625;32;34245;-86
2022/01/16 08:16:06;;;;;;;;;;;;;;;7.13;35.37;100116.88;4482566;32;34213;-86
2022/01/16 08:18:33;;;;;;;;;;;;;;;7.01;35.57;100124.97;4483229;32;34494;-87
2022/01/16 08:21:01;;;;;;;;;;;;;;;7.12;35.34;100121.94;4481753;32;34149;-88
2022/01/16 08:23:29;;;;;;;;;;;;;;;7.26;35.22;100124.28;4485942;32;35026;-88
2022/01/16 08:25:56;;;;;;;;;;;;;;;7.24;35.33;100123.34;4483294;32;35150;-88
2022/01/16 08:28:24;;;;;;;;;;;;;;;7.02;35.63;100131.00;4482696;32;34240;-85
2022/01/16 08:30:51;;;;;;;;;;;;;;;6.89;35.90;100114.13;4467407;32;34462;-87
2022/01/16 08:33:18;;;;;;;;;;;;;;;7.04;35.97;100113.88;4469240;32;34204;-88
2022/01/16 08:35:46;;;;;;;;;;;;;;;6.86;36.26;100107.94;4483079;32;33992;-86
2022/01/16 08:38:13;;;;;;;;;;;;;;;7.01;36.10;100108.63;4483192;32;34454;-90
2022/01/16 08:40:40;;;;;;;;;;;;;;;7.31;35.78;100104.75;4481798;32;34331;-86
2022/01/16 08:43:09;;;;;;;;;;;;;;;7.54;35.53;100087.59;4482663;32;33500;-87
2022/01/16 08:45:37;;;;;;;;;;;;;;;7.46;35.64;100080.34;4482888;32;35366;-89
2022/01/16 08:48:06;;;;;;;;;;;;;;;7.16;36.06;100083.47;4481654;32;33784;-87
2022/01/16 08:50:36;;;;;;;;;;;;;;;7.15;36.35;100079.12;4481444;32;34830;-87
2022/01/16 08:53:04;;;;;;;;;;;;;;;7.18;36.46;100081.81;4481600;32;34241;-88
2022/01/16 08:55:32;;;;;;;;;;;;;;;7.39;36.46;100075.78;4481462;32;34426;-88
2022/01/16 08:57:59;;;;;;;;;;;;;;;7.10;37.18;100072.91;4482498;32;33373;-87
2022/01/16 09:00:26;;;;;;;;;;;;;;;7.07;37.54;100075.34;4482917;32;35079;-88
2022/01/16 09:02:54;;;;;;;;;;;;;;;5.78;40.34;100076.53;4482499;32;34391;-86
2022/01/16 09:05:21;;;;;;;;;;;;;;;6.27;39.91;100069.38;4482374;32;34449;-86
2022/01/16 09:07:48;;;;;;;;;;;;;;;5.61;41.28;100074.06;4483092;32;33757;-88
2022/01/16 09:10:16;;;;;;;;;;;;;;;5.65;41.31;100072.53;4482896;32;34117;-85
2022/01/16 09:12:43;;;;;;;;;;;;;;;3.67;46.30;100077.00;4475363;32;35372;-88
2022/01/16 09:15:10;;;;;;;;;;;;;;;4.98;43.84;100079.56;4484756;32;34824;-85
2022/01/16 09:17:38;;;;;;;;;;;;;;;5.17;43.31;100078.78;4482283;32;33755;-86
2022/01/16 09:20:06;;;;;;;;;;;;;;;5.80;42.16;100072.34;4483564;32;34074;-84
2022/01/16 09:22:34;;;;;;;;;;;;;;;6.14;41.54;100082.53;4483022;32;35356;-87
2022/01/16 09:25:01;;;;;;;;;;;;;;;6.12;41.40;100078.09;4481965;32;35241;-86
2022/01/16 09:27:29;;;;;;;;;;;;;;;6.86;40.16;100072.78;4470512;32;33684;-88
2022/01/16 09:29:56;;;;;;;;;;;;;;;6.70;40.21;100076.38;4468862;32;35054;-87
2022/01/16 09:32:23;;;;;;;;;;;;;;;6.83;39.58;100062.34;4473090;32;35232;-87
2022/01/16 09:34:51;;;;;;;;;;;;;;;6.89;39.94;100061.69;4483212;32;35125;-85
2022/01/16 09:37:18;;;;;;;;;;;;;;;7.03;39.54;100063.16;4484327;32;34475;-86
2022/01/16 09:39:45;;;;;;;;;;;;;;;7.42;38.97;100052.66;4482906;32;34680;-85
2022/01/16 09:42:13;;;;;;;;;;;;;;;7.38;38.98;100051.66;4475265;32;34295;-87
2022/01/16 09:44:40;;;;;;;;;;;;;;;7.54;38.77;100040.28;4468649;32;34253;-88
2022/01/16 09:47:09;;;;;;;;;;;;;;;6.90;40.18;100042.84;4468561;32;33517;-84
2022/01/16 09:49:36;;;;;;;;;;;;;;;6.41;40.92;100045.94;4468855;32;33856;-86
2022/01/16 09:52:04;;;;;;;;;;;;;;;6.53;40.31;100043.87;4481235;32;33961;-85
2022/01/16 09:54:31;;;;;;;;;;;;;;;5.15;43.52;100049.53;4473134;32;33861;-87
2022/01/16 09:56:58;;;;;;;;;;;;;;;5.69;42.77;100040.97;4472754;32;33271;-90
2022/01/16 09:59:26;;;;;;;;;;;;;;;6.16;42.22;100041.38;4475317;32;33760;-89
2022/01/16 10:01:53;;;;;;;;;;;;;;;5.28;43.81;100039.03;4483213;32;34033;-90
2022/01/16 10:04:28;;;;;;;;;;;;;;;5.92;42.59;100038.56;4483467;32;34745;-90
2022/01/16 10:06:58;;;;;;;;;;;;;;;6.83;41.07;100032.28;4480128;32;35092;-85
2022/01/16 10:09:26;;;;;;;;;;;;;;;5.89;41.21;100031.59;4478314;32;33711;-84
2022/01/16 10:11:58;;;;;;;;;;;;;;;7.08;39.48;100028.13;4481573;32;35132;-84
2022/01/16 10:14:50;;;;;;;;;;;;;;;7.24;38.93;100014.16;4471781;32;34502;-84
2022/01/16 10:17:18;;;;;;;;;;;;;;;6.97;39.25;100017.38;4482069;32;33335;-87
2022/01/16 10:19:49;;;;;;;;;;;;;;;6.58;40.33;100008.88;4467967;32;34020;-86
2022/01/16 10:22:17;;;;;;;;;;;;;;;7.40;38.55;100002.72;4470389;32;34416;-84
2022/01/16 10:24:44;;;;;;;;;;;;;;;7.83;37.97;100012.09;4476720;32;35315;-87
2022/01/16 10:27:14;;;;;;;;;;;;;;;8.18;37.21;100006.53;4483826;32;34523;-87
2022/01/16 10:29:42;;;;;;;;;;;;;;;7.97;37.27;100003.16;4474112;32;34285;-84
2022/01/16 10:32:13;;;;;;;;;;;;;;;7.88;37.34;100006.28;4476449;31;34193;-87
2022/01/16 10:34:41;;;;;;;;;;;;;;;7.02;38.38;100007.25;4480798;32;34526;-85
2022/01/16 10:37:18;;;;;;;;;;;;;;;7.53;38.46;100002.38;4483503;32;33123;-87
2022/01/16 10:39:52;;;;;;;;;;;;;;;8.08;37.59;100011.31;4481941;32;34939;-85
2022/01/16 10:42:19;;;;;;;;;;;;;;;7.24;38.46;99999.56;4467825;32;34787;-84
2022/01/16 10:44:54;;;;;;;;;;;;;;;5.41;42.76;99996.78;4468029;32;35100;-85
2022/01/16 10:47:23;;;;;;;;;;;;;;;4.60;45.10;100006.59;4476252;32;32716;-85
2022/01/16 10:50:11;;;;;;;;;;;;;;;6.41;41.80;99994.41;4479375;32;34078;-85
2022/01/16 10:52:47;;;;;;;;;;;;;;;7.26;39.97;99987.59;4483292;32;33943;-86
2022/01/16 10:55:15;;;;;;;;;;;;;;;5.19;44.71;100006.06;4483085;32;35068;-87
2022/01/16 10:57:45;;;;;;;;;;;;;;;5.98;42.55;100006.28;4481962;32;33723;-85
2022/01/16 11:00:12;;;;;;;;;;;;;;;6.29;42.00;99998.22;4483556;32;33963;-85
2022/01/16 11:02:42;;;;;;;;;;;;;;;5.78;43.13;99996.78;4482327;32;34063;-89
2022/01/16 11:05:11;;;;;;;;;;;;;;;4.45;46.07;100013.53;4481447;32;34456;-91
2022/01/16 11:07:38;;;;;;;;;;;;;;;4.53;46.17;100009.66;4468886;32;32600;-86
2022/01/16 11:10:23;;;;;;;;;;;;;;;4.32;46.96;100001.78;4481841;32;34570;-86
2022/01/16 11:12:52;;;;;;;;;;;;;;;5.18;45.32;99995.69;4483189;32;33945;-86
2022/01/16 11:15:20;;;;;;;;;;;;;;;5.86;43.93;99986.00;4481979;32;35034;-86
2022/01/16 11:17:47;;;;;;;;;;;;;;;5.93;43.45;99970.87;4468620;32;34025;-86
2022/01/16 11:20:15;;;;;;;;;;;;;;;5.76;44.20;99990.69;4480534;32;34196;-85
2022/01/16 11:22:57;;;;;;;;;;;;;;;6.43;42.58;99979.88;4482585;32;34248;-86
2022/01/16 11:25:31;;;;;;;;;;;;;;;5.79;43.49;99972.78;4477421;32;35277;-85
2022/01/16 11:28:08;;;;;;;;;;;;;;;5.05;45.96;99971.13;4481628;32;33710;-85
2022/01/16 11:30:37;;;;;;;;;;;;;;;5.70;45.03;99968.13;4477908;31;34115;-86
2022/01/16 11:33:04;;;;;;;;;;;;;;;5.75;44.78;99952.88;4482795;32;34501;-86
2022/01/16 11:35:32;;;;;;;;;;;;;;;6.48;43.18;99950.06;4482152;32;34545;-87
2022/01/16 11:37:59;;;;;;;;;;;;;;;5.72;44.42;99947.59;4481144;32;33355;-87
2022/01/16 11:40:29;;;;;;;;;;;;;;;4.51;47.68;99953.09;4481258;32;34072;-86
2022/01/16 11:43:16;;;;;;;;;;;;;;;4.16;48.99;99946.19;4481858;32;34371;-90
2022/01/16 11:46:04;;;;;;;;;;;;;;;5.08;46.79;99935.28;4482745;32;34627;-87
2022/01/16 11:48:35;;;;;;;;;;;;;;;3.74;49.67;99945.75;4483452;32;33678;-87
2022/01/16 11:51:31;;;;;;;;;;;;;;;4.65;47.42;99928.09;4482933;32;35131;-89
2022/01/16 11:54:01;;;;;;;;;;;;;;;4.70;47.93;99941.13;4483303;32;35457;-89
2022/01/16 11:56:37;;;;;;;;;;;;;;;4.02;49.27;99944.62;4482350;32;34540;-85
2022/01/16 11:59:24;;;;;;;;;;;;;;;4.95;47.42;99938.94;4481976;32;33744;-89
2022/01/16 12:01:59;;;;;;;;;;;;;;;5.79;45.28;99922.22;4475926;32;34225;-90
2022/01/16 12:04:30;;;;;;;;;;;;;;;6.94;42.22;99921.88;4481275;32;35391;-85
2022/01/16 12:06:58;;;;;;;;;;;;;;;6.15;43.95;99916.06;4478344;32;34444;-87
2022/01/16 12:09:34;;;;;;;;;;;;;;;5.33;45.70;99912.44;4482523;32;33744;-89
2022/01/16 12:12:02;;;;;;;;;;;;;;;5.43;45.47;99903.47;4482602;32;34192;-88
2022/01/16 12:14:48;;;;;;;;;;;;;;;6.16;43.72;99887.78;4481371;32;34340;-85
2022/01/16 12:17:48;;;;;;;;;;;;;;;6.41;43.13;99884.53;4481544;32;33910;-90
2022/01/16 12:20:17;;;;;;;;;;;;;;;6.58;43.02;99898.09;4482082;32;33685;-87
2022/01/16 12:22:46;;;;;;;;;;;;;;;7.41;41.32;99890.97;4481557;32;34214;-85
2022/01/16 12:25:26;;;;;;;;;;;;;;;7.10;41.98;99884.66;4478260;32;34589;-88
2022/01/16 12:28:08;;;;;;;;;;;;;;;7.73;40.70;99887.00;4467578;32;35277;-85
2022/01/16 12:30:48;;;;;;;;;;;;;;;8.50;39.36;99875.88;4478984;32;33532;-88
2022/01/16 12:33:15;;;;;;;;;;;;;;;7.97;40.11;99874.94;4481709;32;35116;-87
2022/01/16 12:35:44;;;;;;;;;;;;;;;8.38;39.52;99869.44;4481899;32;34077;-92
2022/01/16 12:38:13;;;;;;;;;;;;;;;8.97;38.34;99878.19;4482582;32;33888;-88
2022/01/16 12:40:45;;;;;;;;;;;;;;;8.48;38.81;99871.47;4480577;32;33449;-90
2022/01/16 12:43:17;;;;;;;;;;;;;;;9.32;37.54;99870.59;4481691;32;33963;-89
2022/01/16 12:45:45;;;;;;;;;;;;;;;9.78;36.76;99866.72;4480594;32;34140;-88
2022/01/16 12:48:13;;;;;;;;;;;;;;;9.72;36.78;99873.47;4481776;32;34158;-88
2022/01/16 12:50:40;;;;;;;;;;;;;;;9.73;36.83;99875.22;4483284;32;33812;-89
2022/01/16 12:53:08;;;;;;;;;;;;;;;10.07;36.46;99875.25;4481261;32;34328;-85
2022/01/16 12:55:35;;;;;;;;;;;;;;;10.23;36.16;99875.69;4482826;32;33867;-84
2022/01/16 12:58:18;;;;;;;;;;;;;;;10.05;35.93;99872.63;4468749;32;33600;-84
2022/01/16 13:00:57;;;;;;;;;;;;;;;10.26;35.54;99868.84;4472890;32;33760;-85
2022/01/16 13:03:26;;;;;;;;;;;;;;;10.19;35.87;99863.50;4470319;32;34221;-86
2022/01/16 13:06:12;;;;;;;;;;;;;;;10.47;35.34;99848.66;4480360;32;34446;-87
2022/01/16 13:09:06;;;;;;;;;;;;;;;9.53;36.52;99857.41;4482810;32;34036;-90
2022/01/16 13:11:37;;;;;;;;;;;;;;;7.89;39.04;99852.25;4480067;31;34390;-86
2022/01/16 13:14:05;;;;;;;;;;;;;;;8.46;38.97;99852.47;4482038;32;34212;-90
2022/01/16 13:16:34;;;;;;;;;;;;;;;7.86;39.95;99847.00;4482060;32;35206;-89
2022/01/16 13:19:16;;;;;;;;;;;;;;;8.02;39.66;99849.25;4482028;32;34378;-90
2022/01/16 13:22:03;;;;;;;;;;;;;;;7.65;40.40;99850.59;4482001;32;33477;-90
2022/01/16 13:24:35;;;;;;;;;;;;;;;8.94;38.24;99841.87;4481830;32;34214;-87
2022/01/16 13:27:04;;;;;;;;;;;;;;;9.45;37.75;99839.06;4481953;32;34318;-85
2022/01/16 13:29:32;;;;;;;;;;;;;;;9.59;37.34;99845.50;4480394;32;34513;-86
2022/01/16 13:32:01;;;;;;;;;;;;;;;8.41;39.17;99841.09;4479355;32;33797;-86
2022/01/16 13:34:34;;;;;;;;;;;;;;;7.86;40.35;99852.16;4479653;32;34241;-88
2022/01/16 13:37:02;;;;;;;;;;;;;;;9.27;37.51;99847.19;4480122;32;35305;-84